sensor_id;sensor_type;location;lat;lon;timestamp;P1;durP1;ratioP1;P2;durP2;ratioP2
16612;SDS011;8419;52.358;9.752;2023-02-19T00:00:06;6.85;;;2.95;;
16612;SDS011;8419;52.358;9.752;2023-02-19T00:02:54;7.82;;;2.72;;
16612;SDS011;8419;52.358;9.752;2023-02-19T00:05:41;6.45;;;3.62;;
16612;SDS011;8419;52.358;9.752;2023-02-19T00:08:26;8.73;;;3.25;;
16612;SDS011;8419;52.358;9.752;2023-02-19T00:11:16;10.23;;;3.70;;
16612;SDS011;8419;52.358;9.752;2023-02-19T00:14:02;7.32;;;4.07;;
16612;SDS011;8419;52.358;9.752;2023-02-19T00:16:49;8.15;;;3.55;;
16612;SDS011;8419;52.358;9.752;2023-02-19T00:19:34;4.57;;;3.08;;
16612;SDS011;8419;52.358;9.752;2023-02-19T00:22:20;5.93;;;3.67;;
16612;SDS011;8419;52.358;9.752;2023-02-19T00:25:07;8.57;;;3.60;;
16612;SDS011;8419;52.358;9.752;2023-02-19T00:27:53;6.25;;;3.67;;
16612;SDS011;8419;52.358;9.752;2023-02-19T00:30:38;6.57;;;3.47;;
16612;SDS011;8419;52.358;9.752;2023-02-19T00:33:24;7.65;;;3.08;;
16612;SDS011;8419;52.358;9.752;2023-02-19T00:36:12;6.00;;;3.25;;
16612;SDS011;8419;52.358;9.752;2023-02-19T00:38:58;4.55;;;3.85;;
16612;SDS011;8419;52.358;9.752;2023-02-19T00:41:45;6.22;;;3.17;;
16612;SDS011;8419;52.358;9.752;2023-02-19T00:44:30;5.82;;;4.25;;
16612;SDS011;8419;52.358;9.752;2023-02-19T00:47:16;7.82;;;4.60;;
16612;SDS011;8419;52.358;9.752;2023-02-19T00:50:01;9.18;;;5.12;;
16612;SDS011;8419;52.358;9.752;2023-02-19T00:52:47;8.63;;;5.03;;
16612;SDS011;8419;52.358;9.752;2023-02-19T00:55:33;9.65;;;5.57;;
16612;SDS011;8419;52.358;9.752;2023-02-19T00:58:18;7.68;;;4.85;;
16612;SDS011;8419;52.358;9.752;2023-02-19T01:01:04;10.95;;;5.78;;
16612;SDS011;8419;52.358;9.752;2023-02-19T01:03:51;9.60;;;6.12;;
16612;SDS011;8419;52.358;9.752;2023-02-19T01:06:37;13.80;;;6.60;;
16612;SDS011;8419;52.358;9.752;2023-02-19T01:09:22;13.27;;;6.20;;
16612;SDS011;8419;52.358;9.752;2023-02-19T01:12:07;13.95;;;6.85;;
16612;SDS011;8419;52.358;9.752;2023-02-19T01:14:53;13.75;;;7.00;;
16612;SDS011;8419;52.358;9.752;2023-02-19T01:17:38;11.12;;;7.62;;
16612;SDS011;8419;52.358;9.752;2023-02-19T01:20:24;15.30;;;6.80;;
16612;SDS011;8419;52.358;9.752;2023-02-19T01:23:10;13.50;;;6.90;;
16612;SDS011;8419;52.358;9.752;2023-02-19T01:25:57;18.42;;;8.23;;
16612;SDS011;8419;52.358;9.752;2023-02-19T01:28:42;6.78;;;5.15;;
16612;SDS011;8419;52.358;9.752;2023-02-19T01:31:30;1.35;;;1.05;;
16612;SDS011;8419;52.358;9.752;2023-02-19T01:34:16;0.15;;;0.15;;
16612;SDS011;8419;52.358;9.752;2023-02-19T01:37:02;0.62;;;0.62;;
16612;SDS011;8419;52.358;9.752;2023-02-19T01:39:47;0.20;;;0.20;;
16612;SDS011;8419;52.358;9.752;2023-02-19T01:42:33;0.10;;;0.10;;
16612;SDS011;8419;52.358;9.752;2023-02-19T01:45:24;0.00;;;0.00;;
16612;SDS011;8419;52.358;9.752;2023-02-19T01:48:12;0.10;;;0.10;;
16612;SDS011;8419;52.358;9.752;2023-02-19T01:51:04;0.10;;;0.10;;
16612;SDS011;8419;52.358;9.752;2023-02-19T01:53:53;0.10;;;0.10;;
16612;SDS011;8419;52.358;9.752;2023-02-19T01:56:42;0.00;;;0.00;;
16612;SDS011;8419;52.358;9.752;2023-02-19T01:59:32;0.10;;;0.10;;
16612;SDS011;8419;52.358;9.752;2023-02-19T02:02:18;0.98;;;0.28;;
16612;SDS011;8419;52.358;9.752;2023-02-19T02:05:05;0.00;;;0.00;;
16612;SDS011;8419;52.358;9.752;2023-02-19T02:07:59;0.00;;;0.00;;
16612;SDS011;8419;52.358;9.752;2023-02-19T02:11:05;0.00;;;0.00;;
16612;SDS011;8419;52.358;9.752;2023-02-19T02:13:51;0.00;;;0.00;;
16612;SDS011;8419;52.358;9.752;2023-02-19T02:16:40;0.60;;;0.60;;
16612;SDS011;8419;52.358;9.752;2023-02-19T02:19:36;2.50;;;0.62;;
16612;SDS011;8419;52.358;9.752;2023-02-19T02:22:40;3.42;;;0.90;;
16612;SDS011;8419;52.358;9.752;2023-02-19T02:25:37;0.88;;;0.70;;
16612;SDS011;8419;52.358;9.752;2023-02-19T02:28:45;1.20;;;0.90;;
16612;SDS011;8419;52.358;9.752;2023-02-19T02:31:49;2.60;;;1.08;;
16612;SDS011;8419;52.358;9.752;2023-02-19T02:34:40;1.92;;;0.80;;
16612;SDS011;8419;52.358;9.752;2023-02-19T02:37:33;0.82;;;0.70;;
16612;SDS011;8419;52.358;9.752;2023-02-19T02:40:22;1.10;;;0.75;;
16612;SDS011;8419;52.358;9.752;2023-02-19T02:43:08;2.10;;;0.75;;
16612;SDS011;8419;52.358;9.752;2023-02-19T02:45:55;2.12;;;1.50;;
16612;SDS011;8419;52.358;9.752;2023-02-19T02:48:42;2.45;;;1.37;;
16612;SDS011;8419;52.358;9.752;2023-02-19T02:51:37;6.03;;;3.15;;
16612;SDS011;8419;52.358;9.752;2023-02-19T02:54:33;5.20;;;3.03;;
16612;SDS011;8419;52.358;9.752;2023-02-19T02:57:38;9.57;;;3.47;;
16612;SDS011;8419;52.358;9.752;2023-02-19T03:00:23;8.18;;;5.10;;
16612;SDS011;8419;52.358;9.752;2023-02-19T03:04:56;8.68;;;5.45;;
16612;SDS011;8419;52.358;9.752;2023-02-19T03:11:11;5.68;;;3.47;;
16612;SDS011;8419;52.358;9.752;2023-02-19T03:14:17;9.35;;;6.03;;
16612;SDS011;8419;52.358;9.752;2023-02-19T03:17:26;10.45;;;4.65;;
16612;SDS011;8419;52.358;9.752;2023-02-19T03:20:36;4.12;;;3.30;;
16612;SDS011;8419;52.358;9.752;2023-02-19T03:23:26;3.08;;;1.58;;
16612;SDS011;8419;52.358;9.752;2023-02-19T03:26:35;0.85;;;0.85;;
16612;SDS011;8419;52.358;9.752;2023-02-19T03:29:23;3.78;;;2.40;;
16612;SDS011;8419;52.358;9.752;2023-02-19T03:32:14;2.00;;;1.50;;
16612;SDS011;8419;52.358;9.752;2023-02-19T03:35:07;1.60;;;1.10;;
16612;SDS011;8419;52.358;9.752;2023-02-19T03:37:58;1.27;;;0.80;;
16612;SDS011;8419;52.358;9.752;2023-02-19T03:40:51;1.37;;;0.85;;
16612;SDS011;8419;52.358;9.752;2023-02-19T03:43:47;0.88;;;0.50;;
16612;SDS011;8419;52.358;9.752;2023-02-19T03:46:41;0.95;;;0.60;;
16612;SDS011;8419;52.358;9.752;2023-02-19T03:49:31;1.30;;;0.90;;
16612;SDS011;8419;52.358;9.752;2023-02-19T03:52:26;0.88;;;0.70;;
16612;SDS011;8419;52.358;9.752;2023-02-19T03:55:22;1.17;;;0.70;;
16612;SDS011;8419;52.358;9.752;2023-02-19T03:58:19;0.98;;;0.50;;
16612;SDS011;8419;52.358;9.752;2023-02-19T04:01:09;0.73;;;0.55;;
16612;SDS011;8419;52.358;9.752;2023-02-19T04:04:00;0.77;;;0.75;;
16612;SDS011;8419;52.358;9.752;2023-02-19T04:06:53;1.08;;;0.60;;
16612;SDS011;8419;52.358;9.752;2023-02-19T04:09:42;0.95;;;0.65;;
16612;SDS011;8419;52.358;9.752;2023-02-19T04:12:32;1.10;;;0.57;;
16612;SDS011;8419;52.358;9.752;2023-02-19T04:15:20;1.10;;;0.60;;
16612;SDS011;8419;52.358;9.752;2023-02-19T04:18:12;1.05;;;0.60;;
16612;SDS011;8419;52.358;9.752;2023-02-19T04:21:01;1.90;;;0.80;;
16612;SDS011;8419;52.358;9.752;2023-02-19T04:23:49;0.95;;;0.65;;
16612;SDS011;8419;52.358;9.752;2023-02-19T04:26:34;0.98;;;0.77;;
16612;SDS011;8419;52.358;9.752;2023-02-19T04:29:20;3.08;;;1.00;;
16612;SDS011;8419;52.358;9.752;2023-02-19T04:32:08;1.25;;;0.90;;
16612;SDS011;8419;52.358;9.752;2023-02-19T04:34:54;1.20;;;0.90;;
16612;SDS011;8419;52.358;9.752;2023-02-19T04:37:39;0.98;;;0.70;;
16612;SDS011;8419;52.358;9.752;2023-02-19T04:40:25;1.00;;;0.70;;
16612;SDS011;8419;52.358;9.752;2023-02-19T04:43:10;1.52;;;0.80;;
16612;SDS011;8419;52.358;9.752;2023-02-19T04:45:58;0.62;;;0.60;;
16612;SDS011;8419;52.358;9.752;2023-02-19T04:48:45;0.50;;;0.35;;
16612;SDS011;8419;52.358;9.752;2023-02-19T04:51:31;0.40;;;0.40;;
16612;SDS011;8419;52.358;9.752;2023-02-19T04:54:16;0.30;;;0.30;;
16612;SDS011;8419;52.358;9.752;2023-02-19T04:57:02;0.85;;;0.40;;
16612;SDS011;8419;52.358;9.752;2023-02-19T04:59:48;0.30;;;0.30;;
16612;SDS011;8419;52.358;9.752;2023-02-19T05:02:33;0.35;;;0.22;;
16612;SDS011;8419;52.358;9.752;2023-02-19T05:05:19;0.88;;;0.40;;
16612;SDS011;8419;52.358;9.752;2023-02-19T05:08:05;0.20;;;0.20;;
16612;SDS011;8419;52.358;9.752;2023-02-19T05:10:50;0.77;;;0.40;;
16612;SDS011;8419;52.358;9.752;2023-02-19T05:13:40;0.50;;;0.40;;
16612;SDS011;8419;52.358;9.752;2023-02-19T05:16:26;0.28;;;0.28;;
16612;SDS011;8419;52.358;9.752;2023-02-19T05:19:11;1.55;;;0.30;;
16612;SDS011;8419;52.358;9.752;2023-02-19T05:21:58;0.75;;;0.55;;
16612;SDS011;8419;52.358;9.752;2023-02-19T05:24:44;1.58;;;0.80;;
16612;SDS011;8419;52.358;9.752;2023-02-19T05:27:30;0.40;;;0.40;;
16612;SDS011;8419;52.358;9.752;2023-02-19T05:30:15;0.60;;;0.50;;
16612;SDS011;8419;52.358;9.752;2023-02-19T05:33:01;0.40;;;0.40;;
16612;SDS011;8419;52.358;9.752;2023-02-19T05:35:47;0.50;;;0.40;;
16612;SDS011;8419;52.358;9.752;2023-02-19T05:38:35;1.08;;;0.60;;
16612;SDS011;8419;52.358;9.752;2023-02-19T05:41:21;0.98;;;0.60;;
16612;SDS011;8419;52.358;9.752;2023-02-19T05:44:08;1.87;;;0.65;;
16612;SDS011;8419;52.358;9.752;2023-02-19T05:46:55;0.47;;;0.40;;
16612;SDS011;8419;52.358;9.752;2023-02-19T05:49:40;1.37;;;0.62;;
16612;SDS011;8419;52.358;9.752;2023-02-19T05:52:26;1.30;;;0.80;;
16612;SDS011;8419;52.358;9.752;2023-02-19T05:55:12;0.98;;;0.60;;
16612;SDS011;8419;52.358;9.752;2023-02-19T05:57:57;0.80;;;0.65;;
16612;SDS011;8419;52.358;9.752;2023-02-19T06:00:43;2.67;;;0.80;;
16612;SDS011;8419;52.358;9.752;2023-02-19T06:03:29;1.08;;;0.90;;
16612;SDS011;8419;52.358;9.752;2023-02-19T06:06:16;0.75;;;0.73;;
16612;SDS011;8419;52.358;9.752;2023-02-19T06:09:03;0.93;;;0.40;;
16612;SDS011;8419;52.358;9.752;2023-02-19T06:11:50;2.00;;;0.70;;
16612;SDS011;8419;52.358;9.752;2023-02-19T06:14:37;0.60;;;0.60;;
16612;SDS011;8419;52.358;9.752;2023-02-19T06:17:23;0.60;;;0.50;;
16612;SDS011;8419;52.358;9.752;2023-02-19T06:20:09;0.57;;;0.40;;
16612;SDS011;8419;52.358;9.752;2023-02-19T06:22:55;1.42;;;0.85;;
16612;SDS011;8419;52.358;9.752;2023-02-19T06:25:40;0.55;;;0.43;;
16612;SDS011;8419;52.358;9.752;2023-02-19T06:28:26;0.68;;;0.55;;
16612;SDS011;8419;52.358;9.752;2023-02-19T06:31:11;0.90;;;0.62;;
16612;SDS011;8419;52.358;9.752;2023-02-19T06:34:01;2.03;;;0.60;;
16612;SDS011;8419;52.358;9.752;2023-02-19T06:36:48;1.65;;;0.52;;
16612;SDS011;8419;52.358;9.752;2023-02-19T06:39:34;1.65;;;0.62;;
16612;SDS011;8419;52.358;9.752;2023-02-19T06:42:20;0.50;;;0.50;;
16612;SDS011;8419;52.358;9.752;2023-02-19T06:45:06;1.52;;;0.77;;
16612;SDS011;8419;52.358;9.752;2023-02-19T06:47:52;3.15;;;0.60;;
16612;SDS011;8419;52.358;9.752;2023-02-19T06:50:38;0.70;;;0.60;;
16612;SDS011;8419;52.358;9.752;2023-02-19T06:53:24;0.68;;;0.62;;
16612;SDS011;8419;52.358;9.752;2023-02-19T06:56:20;1.27;;;0.62;;
16612;SDS011;8419;52.358;9.752;2023-02-19T06:59:09;0.65;;;0.55;;
16612;SDS011;8419;52.358;9.752;2023-02-19T07:01:58;1.08;;;0.68;;
16612;SDS011;8419;52.358;9.752;2023-02-19T07:04:44;2.45;;;1.02;;
16612;SDS011;8419;52.358;9.752;2023-02-19T07:07:30;1.10;;;1.00;;
16612;SDS011;8419;52.358;9.752;2023-02-19T07:10:15;1.17;;;1.00;;
16612;SDS011;8419;52.358;9.752;2023-02-19T07:13:01;1.85;;;1.12;;
16612;SDS011;8419;52.358;9.752;2023-02-19T07:15:47;2.40;;;1.12;;
16612;SDS011;8419;52.358;9.752;2023-02-19T07:18:32;1.55;;;0.90;;
16612;SDS011;8419;52.358;9.752;2023-02-19T07:21:18;2.05;;;1.27;;
16612;SDS011;8419;52.358;9.752;2023-02-19T07:24:04;1.62;;;1.08;;
16612;SDS011;8419;52.358;9.752;2023-02-19T07:26:50;1.00;;;0.85;;
16612;SDS011;8419;52.358;9.752;2023-02-19T07:29:38;1.67;;;0.98;;
16612;SDS011;8419;52.358;9.752;2023-02-19T07:32:24;1.20;;;0.85;;
16612;SDS011;8419;52.358;9.752;2023-02-19T07:35:10;1.15;;;0.90;;
16612;SDS011;8419;52.358;9.752;2023-02-19T07:37:57;1.27;;;1.08;;
16612;SDS011;8419;52.358;9.752;2023-02-19T07:40:49;1.52;;;1.10;;
16612;SDS011;8419;52.358;9.752;2023-02-19T07:43:36;1.30;;;1.10;;
16612;SDS011;8419;52.358;9.752;2023-02-19T07:46:23;1.75;;;1.30;;
16612;SDS011;8419;52.358;9.752;2023-02-19T07:49:10;2.12;;;1.30;;
16612;SDS011;8419;52.358;9.752;2023-02-19T07:51:55;1.90;;;1.23;;
16612;SDS011;8419;52.358;9.752;2023-02-19T07:54:44;3.17;;;1.42;;
16612;SDS011;8419;52.358;9.752;2023-02-19T07:57:29;3.03;;;1.70;;
16612;SDS011;8419;52.358;9.752;2023-02-19T08:00:15;3.03;;;2.05;;
16612;SDS011;8419;52.358;9.752;2023-02-19T08:03:02;2.92;;;2.00;;
16612;SDS011;8419;52.358;9.752;2023-02-19T08:05:49;3.05;;;2.08;;
16612;SDS011;8419;52.358;9.752;2023-02-19T08:08:37;2.55;;;1.90;;
16612;SDS011;8419;52.358;9.752;2023-02-19T08:11:23;3.00;;;2.25;;
16612;SDS011;8419;52.358;9.752;2023-02-19T08:14:28;3.70;;;2.17;;
16612;SDS011;8419;52.358;9.752;2023-02-19T08:17:13;2.60;;;2.17;;
16612;SDS011;8419;52.358;9.752;2023-02-19T08:19:59;3.97;;;2.12;;
16612;SDS011;8419;52.358;9.752;2023-02-19T08:22:49;3.78;;;2.08;;
16612;SDS011;8419;52.358;9.752;2023-02-19T08:25:35;5.32;;;2.90;;
16612;SDS011;8419;52.358;9.752;2023-02-19T08:28:23;4.07;;;2.25;;
16612;SDS011;8419;52.358;9.752;2023-02-19T08:31:10;4.35;;;2.50;;
16612;SDS011;8419;52.358;9.752;2023-02-19T08:33:56;3.67;;;2.58;;
16612;SDS011;8419;52.358;9.752;2023-02-19T08:36:42;4.62;;;2.80;;
16612;SDS011;8419;52.358;9.752;2023-02-19T08:39:27;4.68;;;2.78;;
16612;SDS011;8419;52.358;9.752;2023-02-19T08:42:13;3.92;;;2.67;;
16612;SDS011;8419;52.358;9.752;2023-02-19T08:44:59;4.22;;;2.60;;
16612;SDS011;8419;52.358;9.752;2023-02-19T08:47:44;2.33;;;1.60;;
16612;SDS011;8419;52.358;9.752;2023-02-19T08:50:30;3.85;;;2.30;;
16612;SDS011;8419;52.358;9.752;2023-02-19T08:53:18;3.75;;;2.03;;
16612;SDS011;8419;52.358;9.752;2023-02-19T08:56:04;3.10;;;2.15;;
16612;SDS011;8419;52.358;9.752;2023-02-19T08:58:51;5.00;;;2.30;;
16612;SDS011;8419;52.358;9.752;2023-02-19T09:01:36;5.10;;;2.53;;
16612;SDS011;8419;52.358;9.752;2023-02-19T09:04:22;4.87;;;2.97;;
16612;SDS011;8419;52.358;9.752;2023-02-19T09:07:08;5.73;;;3.00;;
16612;SDS011;8419;52.358;9.752;2023-02-19T09:09:56;7.23;;;3.20;;
16612;SDS011;8419;52.358;9.752;2023-02-19T09:12:41;4.37;;;3.08;;
16612;SDS011;8419;52.358;9.752;2023-02-19T09:15:27;11.93;;;3.80;;
16612;SDS011;8419;52.358;9.752;2023-02-19T09:18:14;5.35;;;3.60;;
16612;SDS011;8419;52.358;9.752;2023-02-19T09:21:00;7.20;;;4.45;;
16612;SDS011;8419;52.358;9.752;2023-02-19T09:23:48;9.38;;;5.35;;
16612;SDS011;8419;52.358;9.752;2023-02-19T09:26:34;10.98;;;6.18;;
16612;SDS011;8419;52.358;9.752;2023-02-19T09:29:20;16.75;;;9.43;;
16612;SDS011;8419;52.358;9.752;2023-02-19T09:32:08;11.40;;;6.28;;
16612;SDS011;8419;52.358;9.752;2023-02-19T09:34:54;11.75;;;6.55;;
16612;SDS011;8419;52.358;9.752;2023-02-19T09:37:39;11.38;;;6.40;;
16612;SDS011;8419;52.358;9.752;2023-02-19T09:40:25;11.05;;;6.65;;
16612;SDS011;8419;52.358;9.752;2023-02-19T09:43:12;15.50;;;6.82;;
16612;SDS011;8419;52.358;9.752;2023-02-19T09:46:03;8.77;;;5.55;;
16612;SDS011;8419;52.358;9.752;2023-02-19T09:49:02;11.80;;;6.65;;
16612;SDS011;8419;52.358;9.752;2023-02-19T09:51:50;11.15;;;5.78;;
16612;SDS011;8419;52.358;9.752;2023-02-19T09:54:40;10.75;;;6.12;;
16612;SDS011;8419;52.358;9.752;2023-02-19T09:57:27;11.55;;;6.90;;
16612;SDS011;8419;52.358;9.752;2023-02-19T10:00:20;9.63;;;5.50;;
16612;SDS011;8419;52.358;9.752;2023-02-19T10:03:10;11.20;;;5.25;;
16612;SDS011;8419;52.358;9.752;2023-02-19T10:06:05;7.87;;;4.25;;
16612;SDS011;8419;52.358;9.752;2023-02-19T10:08:58;7.45;;;3.80;;
16612;SDS011;8419;52.358;9.752;2023-02-19T10:11:55;7.28;;;2.97;;
16612;SDS011;8419;52.358;9.752;2023-02-19T10:14:43;3.70;;;2.67;;
16612;SDS011;8419;52.358;9.752;2023-02-19T10:17:32;2.78;;;1.90;;
16612;SDS011;8419;52.358;9.752;2023-02-19T10:20:19;4.30;;;2.25;;
16612;SDS011;8419;52.358;9.752;2023-02-19T10:23:09;3.67;;;2.20;;
16612;SDS011;8419;52.358;9.752;2023-02-19T10:25:58;3.70;;;1.83;;
16612;SDS011;8419;52.358;9.752;2023-02-19T10:28:44;2.40;;;1.87;;
16612;SDS011;8419;52.358;9.752;2023-02-19T10:31:30;2.10;;;1.45;;
16612;SDS011;8419;52.358;9.752;2023-02-19T10:34:17;2.08;;;0.85;;
16612;SDS011;8419;52.358;9.752;2023-02-19T10:37:09;2.70;;;1.60;;
16612;SDS011;8419;52.358;9.752;2023-02-19T10:39:58;3.75;;;2.10;;
16612;SDS011;8419;52.358;9.752;2023-02-19T10:42:44;2.17;;;1.55;;
16612;SDS011;8419;52.358;9.752;2023-02-19T10:45:32;3.67;;;1.35;;
16612;SDS011;8419;52.358;9.752;2023-02-19T10:48:24;3.58;;;1.10;;
16612;SDS011;8419;52.358;9.752;2023-02-19T10:51:13;2.10;;;1.35;;
16612;SDS011;8419;52.358;9.752;2023-02-19T10:54:05;1.53;;;1.43;;
16612;SDS011;8419;52.358;9.752;2023-02-19T10:57:14;4.32;;;1.50;;
16612;SDS011;8419;52.358;9.752;2023-02-19T11:00:19;3.00;;;1.20;;
16612;SDS011;8419;52.358;9.752;2023-02-19T11:03:16;3.40;;;1.27;;
16612;SDS011;8419;52.358;9.752;2023-02-19T11:06:05;3.80;;;1.37;;
16612;SDS011;8419;52.358;9.752;2023-02-19T11:08:53;3.42;;;1.55;;
16612;SDS011;8419;52.358;9.752;2023-02-19T11:11:41;3.50;;;1.70;;
16612;SDS011;8419;52.358;9.752;2023-02-19T11:14:26;2.92;;;1.05;;
16612;SDS011;8419;52.358;9.752;2023-02-19T11:17:21;1.70;;;1.08;;
16612;SDS011;8419;52.358;9.752;2023-02-19T11:20:12;1.60;;;1.35;;
16612;SDS011;8419;52.358;9.752;2023-02-19T11:23:05;3.80;;;1.30;;
16612;SDS011;8419;52.358;9.752;2023-02-19T11:26:00;1.55;;;0.80;;
16612;SDS011;8419;52.358;9.752;2023-02-19T11:28:54;5.20;;;1.40;;
16612;SDS011;8419;52.358;9.752;2023-02-19T11:31:42;4.93;;;1.35;;
16612;SDS011;8419;52.358;9.752;2023-02-19T11:34:28;2.47;;;0.70;;
16612;SDS011;8419;52.358;9.752;2023-02-19T11:37:14;2.60;;;1.02;;
16612;SDS011;8419;52.358;9.752;2023-02-19T11:40:01;2.90;;;1.00;;
16612;SDS011;8419;52.358;9.752;2023-02-19T11:42:47;2.80;;;1.10;;
16612;SDS011;8419;52.358;9.752;2023-02-19T11:45:43;5.00;;;1.08;;
16612;SDS011;8419;52.358;9.752;2023-02-19T11:48:40;1.08;;;0.77;;
16612;SDS011;8419;52.358;9.752;2023-02-19T11:51:44;2.40;;;1.00;;
16612;SDS011;8419;52.358;9.752;2023-02-19T11:54:49;4.47;;;1.27;;
16612;SDS011;8419;52.358;9.752;2023-02-19T11:57:39;2.72;;;1.05;;
16612;SDS011;8419;52.358;9.752;2023-02-19T12:00:28;0.52;;;0.43;;
16612;SDS011;8419;52.358;9.752;2023-02-19T12:03:27;4.07;;;1.00;;
16612;SDS011;8419;52.358;9.752;2023-02-19T12:06:25;3.42;;;1.08;;
16612;SDS011;8419;52.358;9.752;2023-02-19T12:09:33;2.97;;;0.88;;
16612;SDS011;8419;52.358;9.752;2023-02-19T12:12:34;2.78;;;0.73;;
16612;SDS011;8419;52.358;9.752;2023-02-19T12:15:32;0.43;;;0.43;;
16612;SDS011;8419;52.358;9.752;2023-02-19T12:21:46;1.65;;;0.80;;
16612;SDS011;8419;52.358;9.752;2023-02-19T12:25:00;3.40;;;0.70;;
16612;SDS011;8419;52.358;9.752;2023-02-19T12:28:14;2.97;;;0.80;;
16612;SDS011;8419;52.358;9.752;2023-02-19T12:31:18;1.20;;;0.70;;
16612;SDS011;8419;52.358;9.752;2023-02-19T12:34:30;1.12;;;0.80;;
16612;SDS011;8419;52.358;9.752;2023-02-19T12:37:28;1.37;;;0.40;;
16612;SDS011;8419;52.358;9.752;2023-02-19T12:40:29;3.45;;;0.98;;
16612;SDS011;8419;52.358;9.752;2023-02-19T12:43:24;3.80;;;0.88;;
16612;SDS011;8419;52.358;9.752;2023-02-19T12:46:11;1.33;;;0.80;;
16612;SDS011;8419;52.358;9.752;2023-02-19T12:49:02;0.85;;;0.77;;
16612;SDS011;8419;52.358;9.752;2023-02-19T12:51:54;3.05;;;0.80;;
16612;SDS011;8419;52.358;9.752;2023-02-19T12:54:45;3.55;;;0.55;;
16612;SDS011;8419;52.358;9.752;2023-02-19T12:57:35;3.05;;;0.88;;
16612;SDS011;8419;52.358;9.752;2023-02-19T13:00:28;1.55;;;0.65;;
16612;SDS011;8419;52.358;9.752;2023-02-19T13:03:20;2.10;;;1.15;;
16612;SDS011;8419;52.358;9.752;2023-02-19T13:06:14;2.33;;;0.60;;
16612;SDS011;8419;52.358;9.752;2023-02-19T13:09:16;2.30;;;0.80;;
16612;SDS011;8419;52.358;9.752;2023-02-19T13:12:07;1.20;;;0.40;;
16612;SDS011;8419;52.358;9.752;2023-02-19T13:15:00;2.10;;;0.80;;
16612;SDS011;8419;52.358;9.752;2023-02-19T13:17:51;1.87;;;0.75;;
16612;SDS011;8419;52.358;9.752;2023-02-19T13:20:38;0.60;;;0.40;;
16612;SDS011;8419;52.358;9.752;2023-02-19T13:23:28;3.75;;;1.08;;
16612;SDS011;8419;52.358;9.752;2023-02-19T13:26:38;2.30;;;0.90;;
16612;SDS011;8419;52.358;9.752;2023-02-19T13:29:47;2.30;;;0.70;;
16612;SDS011;8419;52.358;9.752;2023-02-19T13:32:54;2.55;;;0.95;;
16612;SDS011;8419;52.358;9.752;2023-02-19T13:35:57;1.50;;;0.70;;
16612;SDS011;8419;52.358;9.752;2023-02-19T13:38:56;1.67;;;0.77;;
16612;SDS011;8419;52.358;9.752;2023-02-19T13:41:48;3.30;;;0.70;;
16612;SDS011;8419;52.358;9.752;2023-02-19T13:44:36;2.62;;;1.00;;
16612;SDS011;8419;52.358;9.752;2023-02-19T13:50:31;0.28;;;0.20;;
16612;SDS011;8419;52.358;9.752;2023-02-19T13:56:44;3.83;;;1.02;;
16612;SDS011;8419;52.358;9.752;2023-02-19T13:59:34;3.37;;;0.82;;
16612;SDS011;8419;52.358;9.752;2023-02-19T14:02:26;1.05;;;0.70;;
16612;SDS011;8419;52.358;9.752;2023-02-19T14:05:16;0.90;;;0.70;;
16612;SDS011;8419;52.358;9.752;2023-02-19T14:08:50;2.60;;;0.98;;
16612;SDS011;8419;52.358;9.752;2023-02-19T14:18:40;1.62;;;0.70;;
16612;SDS011;8419;52.358;9.752;2023-02-19T14:21:33;2.50;;;0.80;;
16612;SDS011;8419;52.358;9.752;2023-02-19T14:24:20;1.55;;;0.70;;
16612;SDS011;8419;52.358;9.752;2023-02-19T14:27:06;2.05;;;0.70;;
16612;SDS011;8419;52.358;9.752;2023-02-19T14:29:56;2.42;;;1.00;;
16612;SDS011;8419;52.358;9.752;2023-02-19T14:32:42;2.08;;;1.00;;
16612;SDS011;8419;52.358;9.752;2023-02-19T14:35:29;1.92;;;0.80;;
16612;SDS011;8419;52.358;9.752;2023-02-19T14:38:20;2.37;;;1.20;;
16612;SDS011;8419;52.358;9.752;2023-02-19T14:41:11;1.73;;;0.90;;
16612;SDS011;8419;52.358;9.752;2023-02-19T14:43:59;1.02;;;0.70;;
16612;SDS011;8419;52.358;9.752;2023-02-19T14:46:51;2.97;;;0.95;;
16612;SDS011;8419;52.358;9.752;2023-02-19T14:49:41;2.28;;;0.85;;
16612;SDS011;8419;52.358;9.752;2023-02-19T14:52:33;0.98;;;0.80;;
16612;SDS011;8419;52.358;9.752;2023-02-19T14:55:25;3.00;;;0.98;;
16612;SDS011;8419;52.358;9.752;2023-02-19T14:58:20;2.20;;;0.77;;
16612;SDS011;8419;52.358;9.752;2023-02-19T15:01:24;2.35;;;1.05;;
16612;SDS011;8419;52.358;9.752;2023-02-19T15:04:18;2.33;;;1.00;;
16612;SDS011;8419;52.358;9.752;2023-02-19T15:07:17;3.20;;;1.17;;
16612;SDS011;8419;52.358;9.752;2023-02-19T15:10:07;1.10;;;0.82;;
16612;SDS011;8419;52.358;9.752;2023-02-19T15:12:58;0.70;;;0.57;;
16612;SDS011;8419;52.358;9.752;2023-02-19T15:15:50;1.73;;;0.88;;
16612;SDS011;8419;52.358;9.752;2023-02-19T15:18:42;1.60;;;1.00;;
16612;SDS011;8419;52.358;9.752;2023-02-19T15:21:33;2.10;;;1.20;;
16612;SDS011;8419;52.358;9.752;2023-02-19T15:24:28;1.48;;;0.75;;
16612;SDS011;8419;52.358;9.752;2023-02-19T15:27:15;2.03;;;1.27;;
16612;SDS011;8419;52.358;9.752;2023-02-19T15:30:14;3.12;;;0.98;;
16612;SDS011;8419;52.358;9.752;2023-02-19T15:33:14;2.85;;;1.80;;
16612;SDS011;8419;52.358;9.752;2023-02-19T15:36:01;2.22;;;1.05;;
16612;SDS011;8419;52.358;9.752;2023-02-19T15:38:53;1.87;;;1.08;;
16612;SDS011;8419;52.358;9.752;2023-02-19T15:41:43;1.50;;;1.40;;
16612;SDS011;8419;52.358;9.752;2023-02-19T15:44:36;3.70;;;2.20;;
16612;SDS011;8419;52.358;9.752;2023-02-19T15:47:32;1.85;;;1.75;;
16612;SDS011;8419;52.358;9.752;2023-02-19T15:50:22;2.65;;;2.03;;
16612;SDS011;8419;52.358;9.752;2023-02-19T15:53:13;2.80;;;1.98;;
16612;SDS011;8419;52.358;9.752;2023-02-19T15:56:02;5.43;;;2.17;;
16612;SDS011;8419;52.358;9.752;2023-02-19T15:58:51;2.67;;;2.28;;
16612;SDS011;8419;52.358;9.752;2023-02-19T16:01:41;2.95;;;1.92;;
16612;SDS011;8419;52.358;9.752;2023-02-19T16:04:28;2.75;;;2.28;;
16612;SDS011;8419;52.358;9.752;2023-02-19T16:07:22;2.60;;;2.25;;
16612;SDS011;8419;52.358;9.752;2023-02-19T16:10:17;1.92;;;1.70;;
16612;SDS011;8419;52.358;9.752;2023-02-19T16:13:10;2.30;;;2.10;;
16612;SDS011;8419;52.358;9.752;2023-02-19T16:16:12;3.05;;;2.37;;
16612;SDS011;8419;52.358;9.752;2023-02-19T16:19:17;3.15;;;2.25;;
16612;SDS011;8419;52.358;9.752;2023-02-19T16:22:06;3.75;;;2.40;;
16612;SDS011;8419;52.358;9.752;2023-02-19T16:24:55;3.15;;;2.83;;
16612;SDS011;8419;52.358;9.752;2023-02-19T16:27:44;4.78;;;2.80;;
16612;SDS011;8419;52.358;9.752;2023-02-19T16:30:30;2.87;;;2.42;;
16612;SDS011;8419;52.358;9.752;2023-02-19T16:33:36;3.60;;;2.85;;
16612;SDS011;8419;52.358;9.752;2023-02-19T16:36:33;3.22;;;2.65;;
16612;SDS011;8419;52.358;9.752;2023-02-19T16:39:24;3.50;;;2.40;;
16612;SDS011;8419;52.358;9.752;2023-02-19T16:42:11;3.72;;;2.65;;
16612;SDS011;8419;52.358;9.752;2023-02-19T16:44:58;3.40;;;2.30;;
16612;SDS011;8419;52.358;9.752;2023-02-19T16:47:44;4.12;;;2.97;;
16612;SDS011;8419;52.358;9.752;2023-02-19T16:50:31;3.75;;;2.65;;
16612;SDS011;8419;52.358;9.752;2023-02-19T16:53:17;3.00;;;2.55;;
16612;SDS011;8419;52.358;9.752;2023-02-19T16:56:06;3.92;;;2.78;;
16612;SDS011;8419;52.358;9.752;2023-02-19T16:58:57;4.32;;;2.72;;
16612;SDS011;8419;52.358;9.752;2023-02-19T17:01:42;5.28;;;3.25;;
16612;SDS011;8419;52.358;9.752;2023-02-19T17:04:28;6.03;;;3.17;;
16612;SDS011;8419;52.358;9.752;2023-02-19T17:07:14;4.97;;;3.30;;
16612;SDS011;8419;52.358;9.752;2023-02-19T17:10:01;3.72;;;2.80;;
16612;SDS011;8419;52.358;9.752;2023-02-19T17:12:51;5.47;;;3.30;;
16612;SDS011;8419;52.358;9.752;2023-02-19T17:15:38;4.50;;;3.25;;
16612;SDS011;8419;52.358;9.752;2023-02-19T17:18:24;3.87;;;2.75;;
16612;SDS011;8419;52.358;9.752;2023-02-19T17:21:11;5.18;;;3.37;;
16612;SDS011;8419;52.358;9.752;2023-02-19T17:23:59;3.95;;;3.35;;
16612;SDS011;8419;52.358;9.752;2023-02-19T17:26:46;7.35;;;3.53;;
16612;SDS011;8419;52.358;9.752;2023-02-19T17:29:32;6.43;;;3.70;;
16612;SDS011;8419;52.358;9.752;2023-02-19T17:32:20;6.72;;;3.53;;
16612;SDS011;8419;52.358;9.752;2023-02-19T17:35:06;7.32;;;3.33;;
16612;SDS011;8419;52.358;9.752;2023-02-19T17:37:52;4.70;;;3.37;;
16612;SDS011;8419;52.358;9.752;2023-02-19T17:40:38;7.50;;;3.85;;